createdAt,value
2018-04-10T00:02:03.698Z,13.10
2018-04-10T00:04:31.284Z,13.10
2018-04-10T00:06:59.654Z,13.10
2018-04-10T00:09:28.020Z,13.10
2018-04-10T00:11:55.680Z,13.10
2018-04-10T00:14:23.354Z,13.10
2018-04-10T00:16:51.706Z,13.10
2018-04-10T00:19:19.381Z,13.10
2018-04-10T00:21:46.963Z,13.00
2018-04-10T00:24:15.348Z,13.00
2018-04-10T00:26:43.729Z,12.90
2018-04-10T00:29:12.078Z,12.90
2018-04-10T00:31:41.178Z,12.90
2018-04-10T00:34:08.827Z,12.90
2018-04-10T00:36:36.501Z,12.90
2018-04-10T00:39:04.084Z,12.80
2018-04-10T00:41:32.445Z,12.80
2018-04-10T00:44:00.813Z,12.70
2018-04-10T00:46:28.409Z,12.80
2018-04-10T00:48:56.005Z,12.70
2018-04-10T00:51:23.598Z,12.60
2018-04-10T00:53:51.270Z,12.60
2018-04-10T00:56:19.634Z,12.50
2018-04-10T00:58:47.230Z,12.50
2018-04-10T01:01:14.814Z,12.40
2018-04-10T01:03:42.483Z,12.40
2018-04-10T01:06:10.088Z,12.40
2018-04-10T01:08:37.701Z,12.30
2018-04-10T01:11:05.284Z,12.30
2018-04-10T01:13:32.981Z,12.20
2018-04-10T01:16:00.638Z,12.20
2018-04-10T01:18:28.244Z,12.20
2018-04-10T01:20:55.827Z,12.10
2018-04-10T01:23:23.432Z,12.10
2018-04-10T01:25:51.777Z,12.00
2018-04-10T01:28:19.362Z,12.00
2018-04-10T01:30:47.710Z,12.00
2018-04-10T01:33:15.303Z,12.00
2018-04-10T01:35:44.508Z,11.90
2018-04-10T01:38:12.873Z,11.90
2018-04-10T01:40:40.463Z,11.90
2018-04-10T01:43:08.098Z,11.90
2018-04-10T01:45:36.509Z,11.80
2018-04-10T01:48:04.150Z,11.80
2018-04-10T01:50:32.594Z,11.70
2018-04-10T01:53:00.187Z,11.70
2018-04-10T01:55:28.565Z,11.70
2018-04-10T01:57:56.994Z,11.70
2018-04-10T02:00:24.615Z,11.70
2018-04-10T02:02:52.993Z,11.60
2018-04-10T02:05:21.409Z,11.60
2018-04-10T02:07:48.990Z,11.60
2018-04-10T02:10:16.581Z,11.60
2018-04-10T02:21:17.344Z,11.40
2018-04-10T02:23:44.950Z,11.40
2018-04-10T02:26:13.285Z,11.40
2018-04-10T02:28:40.893Z,11.40
2018-04-10T02:31:09.369Z,11.30
2018-04-10T02:33:37.732Z,11.40
2018-04-10T02:36:06.324Z,11.40
2018-04-10T02:38:34.683Z,11.30
2018-04-10T02:41:02.359Z,11.30
2018-04-10T02:43:30.731Z,11.30
2018-04-10T02:45:58.456Z,11.30
2018-04-10T02:48:26.047Z,11.20
2018-04-10T02:50:54.502Z,11.20
2018-04-10T02:53:22.089Z,11.20
2018-04-10T02:55:49.767Z,11.10
2018-04-10T02:58:17.446Z,11.10
2018-04-10T03:00:45.798Z,11.10
2018-04-10T03:03:13.567Z,11.10
2018-04-10T03:05:41.154Z,11.10
2018-04-10T03:08:09.521Z,11.10
2018-04-10T03:10:37.898Z,11.00
2018-04-10T03:13:06.250Z,11.00
2018-04-10T03:15:33.938Z,11.00
2018-04-10T03:18:02.286Z,11.00
2018-04-10T03:20:29.896Z,11.00
2018-04-10T03:22:57.500Z,11.00
2018-04-10T03:25:25.097Z,11.00
2018-04-10T03:27:53.437Z,11.00
2018-04-10T03:30:21.082Z,10.90
2018-04-10T03:32:48.684Z,10.90
2018-04-10T03:35:16.381Z,10.90
2018-04-10T03:37:43.977Z,10.90
2018-04-10T03:40:11.558Z,10.90
2018-04-10T03:42:39.194Z,10.90
2018-04-10T03:45:06.806Z,10.80
2018-04-10T03:47:35.176Z,10.80
2018-04-10T03:50:02.769Z,10.80
2018-04-10T03:52:30.365Z,10.80
2018-04-10T03:54:57.959Z,10.80
2018-04-10T03:57:25.617Z,10.70
2018-04-10T03:59:53.283Z,10.70
2018-04-10T04:02:20.890Z,10.70
2018-04-10T04:04:49.154Z,10.60
2018-04-10T04:07:16.814Z,10.60
2018-04-10T04:09:44.421Z,10.50
2018-04-10T04:12:12.574Z,10.50
2018-04-10T04:14:40.184Z,10.50
2018-04-10T04:17:19.543Z,10.50
2018-04-10T04:19:58.983Z,10.50
2018-04-10T04:22:44.230Z,10.40
2018-04-10T04:25:11.838Z,10.30
2018-04-10T04:27:39.419Z,10.40
2018-04-10T04:30:07.010Z,10.40
2018-04-10T04:32:34.596Z,10.40
2018-04-10T04:35:02.199Z,10.30
2018-04-10T04:37:29.795Z,10.30
2018-04-10T04:39:58.181Z,10.20
2018-04-10T04:42:26.526Z,10.10
2018-04-10T04:44:54.134Z,10.10
2018-04-10T04:47:22.495Z,10.70
2018-04-10T04:49:50.845Z,11.20
2018-04-10T04:52:18.431Z,11.10
2018-04-10T04:54:46.847Z,11.70
2018-04-10T04:57:14.445Z,11.70
2018-04-10T04:59:42.033Z,12.00
2018-04-10T05:02:10.369Z,11.40
2018-04-10T05:04:37.988Z,11.40
2018-04-10T05:07:06.326Z,10.90
2018-04-10T05:09:33.929Z,10.90
2018-04-10T05:12:02.269Z,10.70
2018-04-10T05:14:29.850Z,10.70
2018-04-10T05:16:58.206Z,10.60
2018-04-10T05:19:25.809Z,10.60
2018-04-10T05:21:54.325Z,10.50
2018-04-10T05:24:21.914Z,10.50
2018-04-10T05:26:49.494Z,10.50
2018-04-10T05:29:17.847Z,10.40
2018-04-10T05:31:45.534Z,10.40
2018-04-10T05:34:13.889Z,10.40
2018-04-10T05:36:42.344Z,10.40
2018-04-10T05:39:09.994Z,10.50
2018-04-10T05:41:37.622Z,10.50
2018-04-10T05:44:05.974Z,10.50
2018-04-10T05:46:33.562Z,10.60
2018-04-10T05:49:01.925Z,10.60
2018-04-10T05:51:29.530Z,10.60
2018-04-10T05:53:57.267Z,10.60
2018-04-10T05:56:25.366Z,10.60
2018-04-10T05:58:52.967Z,10.70
2018-04-10T06:01:20.670Z,10.70
2018-04-10T06:03:49.045Z,11.00
2018-04-10T06:06:17.478Z,11.10
2018-04-10T06:08:45.071Z,11.10
2018-04-10T06:11:17.034Z,11.20
2018-04-10T06:13:45.397Z,11.30
2018-04-10T06:16:13.001Z,11.30
2018-04-10T06:18:40.636Z,11.40
2018-04-10T06:21:08.449Z,11.50
2018-04-10T06:23:36.158Z,11.60
2018-04-10T06:26:03.764Z,11.70
2018-04-10T06:28:31.349Z,11.70
2018-04-10T06:30:58.950Z,11.80
2018-04-10T06:33:26.542Z,11.90
2018-04-10T06:35:54.452Z,12.00
2018-04-10T06:38:22.199Z,12.20
2018-04-10T06:40:49.924Z,12.30
2018-04-10T06:43:18.270Z,12.50
2018-04-10T06:45:45.862Z,12.40
2018-04-10T06:48:14.335Z,12.60
2018-04-10T06:50:42.717Z,12.70
2018-04-10T06:53:10.370Z,12.70
2018-04-10T06:55:38.923Z,12.90
2018-04-10T06:58:06.591Z,12.80
2018-04-10T07:00:34.179Z,13.00
2018-04-10T07:03:02.550Z,13.20
2018-04-10T07:05:31.038Z,13.40
2018-04-10T07:07:59.505Z,13.40
2018-04-10T07:10:27.174Z,13.60
2018-04-10T07:12:54.837Z,13.80
2018-04-10T07:15:23.215Z,14.30
2018-04-10T07:17:51.307Z,14.20
2018-04-10T07:20:19.678Z,14.80
2018-04-10T07:22:47.345Z,14.80
2018-04-10T07:25:15.684Z,15.20
2018-04-10T07:27:43.277Z,15.20
2018-04-10T07:30:11.068Z,15.30
2018-04-10T07:32:38.697Z,15.40
2018-04-10T07:35:06.307Z,15.40
2018-04-10T07:37:35.378Z,15.50
2018-04-10T07:40:03.014Z,15.50
2018-04-10T07:42:30.590Z,15.60
2018-04-10T07:44:58.214Z,15.70
2018-04-10T07:47:25.802Z,16.00
2018-04-10T07:49:54.227Z,16.40
2018-04-10T07:52:21.805Z,16.30
2018-04-10T07:54:49.386Z,16.60
2018-04-10T07:57:17.058Z,16.80
2018-04-10T07:59:45.418Z,17.20
2018-04-10T08:02:13.033Z,17.20
2018-04-10T08:04:40.671Z,17.40
2018-04-10T08:07:09.018Z,17.60
2018-04-10T08:09:36.627Z,17.60
2018-04-10T08:12:04.220Z,17.80
2018-04-10T08:14:31.821Z,18.00
2018-04-10T08:16:59.394Z,18.30
2018-04-10T08:19:27.199Z,18.60
2018-04-10T08:21:54.777Z,18.80
2018-04-10T08:24:23.291Z,18.90
2018-04-10T08:26:50.862Z,19.10
2018-04-10T08:29:19.209Z,19.70
2018-04-10T08:31:46.903Z,19.60
2018-04-10T08:34:15.270Z,20.10
2018-04-10T08:36:42.855Z,20.10
2018-04-10T08:39:10.435Z,20.40
2018-04-10T08:41:38.020Z,20.60
2018-04-10T08:44:05.620Z,20.90
2018-04-10T08:46:33.962Z,21.40
2018-04-10T08:49:01.682Z,21.40
2018-04-10T08:51:29.267Z,21.70
2018-04-10T08:53:56.879Z,21.80
2018-04-10T08:56:25.227Z,22.10
2018-04-10T08:58:52.909Z,22.10
2018-04-10T09:01:20.581Z,22.50
2018-04-10T09:03:49.019Z,23.20
2018-04-10T09:06:16.646Z,23.20
2018-04-10T09:08:44.256Z,23.60
2018-04-10T09:11:11.986Z,24.00
2018-04-10T09:13:39.588Z,24.30
2018-04-10T09:16:07.219Z,24.60
2018-04-10T09:18:34.804Z,24.80
2018-04-10T09:21:02.384Z,25.10
2018-04-10T09:23:29.974Z,25.10
2018-04-10T09:25:57.574Z,25.30
2018-04-10T09:28:25.146Z,25.50
2018-04-10T09:30:52.762Z,25.70
2018-04-10T09:33:20.347Z,25.90
2018-04-10T09:35:47.951Z,25.90
2018-04-10T09:38:16.313Z,26.10
2018-04-10T09:40:44.720Z,26.30
2018-04-10T09:43:13.087Z,26.60
2018-04-10T09:45:40.749Z,26.60
2018-04-10T09:48:08.330Z,26.70
2018-04-10T09:50:36.665Z,26.50
2018-04-10T09:53:04.469Z,26.50
2018-04-10T09:55:32.851Z,26.70
2018-04-10T09:58:01.247Z,27.10
2018-04-10T10:00:35.409Z,27.30
2018-04-10T10:03:03.160Z,27.30
2018-04-10T10:05:30.743Z,27.50
2018-04-10T10:07:59.215Z,27.60
2018-04-10T10:10:27.740Z,27.70
2018-04-10T10:12:56.154Z,27.80
2018-04-10T10:15:23.839Z,27.80
2018-04-10T10:17:51.517Z,28.10
2018-04-10T10:20:19.112Z,28.00
2018-04-10T10:22:47.475Z,28.30
2018-04-10T10:25:16.000Z,28.50
2018-04-10T10:27:43.590Z,28.50
2018-04-10T10:30:11.173Z,28.80
2018-04-10T10:32:39.553Z,28.40
2018-04-10T10:35:08.033Z,28.60
2018-04-10T10:37:36.390Z,28.70
2018-04-10T10:40:03.975Z,28.70
2018-04-10T10:42:32.385Z,29.60
2018-04-10T10:44:59.964Z,29.60
2018-04-10T10:47:27.579Z,29.40
2018-04-10T10:49:55.931Z,29.50
2018-04-10T10:52:23.543Z,29.40
2018-04-10T10:54:51.123Z,29.80
2018-04-10T10:57:18.730Z,30.00
2018-04-10T10:59:46.399Z,29.70
2018-04-10T11:02:14.784Z,29.80
2018-04-10T11:04:43.159Z,29.90
2018-04-10T11:07:11.548Z,29.90
2018-04-10T11:09:39.926Z,29.70
2018-04-10T11:12:07.516Z,29.70
2018-04-10T11:14:35.138Z,29.80
2018-04-10T11:17:03.759Z,30.10
2018-04-10T11:19:32.193Z,30.50
2018-04-10T11:21:59.782Z,30.50
2018-04-10T11:24:27.362Z,30.60
2018-04-10T11:26:55.028Z,30.60
2018-04-10T11:29:22.759Z,30.70
2018-04-10T11:31:51.138Z,30.60
2018-04-10T11:34:19.490Z,31.00
2018-04-10T11:36:47.838Z,31.20
2018-04-10T11:39:15.423Z,31.20
2018-04-10T11:41:43.013Z,30.90
2018-04-10T11:44:11.476Z,31.50
2018-04-10T11:46:41.347Z,31.40
2018-04-10T11:49:09.127Z,31.40
2018-04-10T11:51:36.728Z,31.40
2018-04-10T11:54:04.351Z,30.70
2018-04-10T11:56:31.965Z,30.70
2018-04-10T11:58:59.566Z,29.90
2018-04-10T12:01:27.160Z,29.80
2018-04-10T12:03:54.849Z,30.00
2018-04-10T12:06:23.227Z,31.30
2018-04-10T12:08:51.590Z,31.50
2018-04-10T12:11:19.958Z,31.50
2018-04-10T12:13:47.645Z,31.50
2018-04-10T12:16:15.238Z,31.40
2018-04-10T12:18:42.816Z,31.40
2018-04-10T12:21:10.415Z,31.70
2018-04-10T12:23:38.783Z,31.30
2018-04-10T12:26:06.362Z,31.30
2018-04-10T12:28:33.949Z,31.30
2018-04-10T12:31:01.560Z,31.20
2018-04-10T12:33:29.268Z,31.10
2018-04-10T12:35:56.859Z,31.40
2018-04-10T12:38:24.437Z,31.10
2018-04-10T12:40:52.113Z,30.60
2018-04-10T12:43:19.723Z,30.60
2018-04-10T12:45:47.390Z,30.70
2018-04-10T12:48:14.967Z,30.90
2018-04-10T12:50:42.621Z,30.80
2018-04-10T12:53:11.033Z,30.40
2018-04-10T12:55:39.232Z,30.00
2018-04-10T12:58:06.857Z,30.00
2018-04-10T13:00:34.449Z,30.20
2018-04-10T13:03:02.794Z,30.20
2018-04-10T13:05:30.426Z,30.20
2018-04-10T13:07:58.041Z,30.50
2018-04-10T13:10:26.416Z,30.30
2018-04-10T13:12:53.982Z,30.30
2018-04-10T13:15:22.356Z,29.70
2018-04-10T13:17:49.938Z,29.70
2018-04-10T13:20:17.525Z,29.50
2018-04-10T13:22:45.179Z,29.20
2018-04-10T13:25:12.811Z,29.20
2018-04-10T13:27:41.177Z,29.70
2018-04-10T13:30:08.783Z,29.70
2018-04-10T13:32:36.579Z,29.60
2018-04-10T13:35:04.331Z,29.70
2018-04-10T13:37:31.915Z,29.60
2018-04-10T13:40:00.259Z,29.70
2018-04-10T13:42:27.923Z,29.70
2018-04-10T13:44:55.559Z,29.40
2018-04-10T13:47:23.255Z,29.50
2018-04-10T13:49:51.007Z,29.20
2018-04-10T13:52:18.589Z,29.30
2018-04-10T13:54:46.278Z,28.90
2018-04-10T13:57:14.004Z,28.80
2018-04-10T13:59:41.616Z,28.70
2018-04-10T14:02:09.962Z,29.00
2018-04-10T14:04:37.695Z,29.00
2018-04-10T14:07:05.315Z,29.10
2018-04-10T14:09:32.967Z,28.90
2018-04-10T14:12:00.550Z,28.90
2018-04-10T14:14:28.890Z,28.80
2018-04-10T14:16:57.248Z,28.80
2018-04-10T14:19:24.835Z,28.80
2018-04-10T14:21:52.418Z,28.80
2018-04-10T14:24:20.772Z,28.40
2018-04-10T14:26:49.226Z,27.90
2018-04-10T14:29:16.818Z,27.90
2018-04-10T14:31:44.468Z,27.70
2018-04-10T14:34:12.036Z,27.50
2018-04-10T14:36:39.624Z,27.50
2018-04-10T14:39:07.535Z,27.30
2018-04-10T14:41:35.727Z,27.10
2018-04-10T14:44:03.310Z,27.00
2018-04-10T14:46:30.890Z,26.80
2018-04-10T14:48:59.252Z,27.00
2018-04-10T14:51:27.601Z,27.30
2018-04-10T14:53:55.202Z,27.20
2018-04-10T14:56:23.607Z,27.50
2018-04-10T14:58:51.248Z,27.40
2018-04-10T15:01:19.602Z,27.10
2018-04-10T15:03:47.171Z,27.10
2018-04-10T15:06:14.796Z,26.90
2018-04-10T15:08:42.357Z,26.70
2018-04-10T15:11:10.740Z,26.30
2018-04-10T15:13:38.315Z,26.30
2018-04-10T15:16:05.956Z,26.20
2018-04-10T15:18:33.557Z,26.20
2018-04-10T15:21:01.156Z,26.30
2018-04-10T15:23:28.758Z,26.10
2018-04-10T15:25:56.707Z,26.00
2018-04-10T15:28:24.307Z,25.80
2018-04-10T15:30:52.674Z,25.60
2018-04-10T15:33:20.251Z,25.50
2018-04-10T15:35:47.923Z,25.50
2018-04-10T15:38:15.490Z,25.30
2018-04-10T15:40:43.848Z,25.10
2018-04-10T15:43:12.208Z,24.90
2018-04-10T15:45:39.782Z,24.90
2018-04-10T15:48:07.350Z,24.90
2018-04-10T15:50:35.716Z,24.80
2018-04-10T15:53:03.299Z,24.80
2018-04-10T15:55:31.707Z,24.60
2018-04-10T15:57:59.280Z,24.60
2018-04-10T16:00:26.916Z,24.40
2018-04-10T16:02:55.286Z,24.30
2018-04-10T16:05:23.669Z,24.30
2018-04-10T16:07:51.362Z,24.30
2018-04-10T16:10:19.127Z,24.20
2018-04-10T16:12:46.884Z,24.00
2018-04-10T16:15:14.532Z,23.90
2018-04-10T16:17:42.187Z,23.90
2018-04-10T16:20:10.735Z,23.80
2018-04-10T16:22:38.320Z,23.70
2018-04-10T16:25:06.682Z,23.70
2018-04-10T16:27:34.269Z,23.60
2018-04-10T16:30:02.612Z,23.50
2018-04-10T16:32:30.202Z,23.40
2018-04-10T16:34:58.564Z,23.50
2018-04-10T16:37:26.229Z,23.40
2018-04-10T16:39:53.835Z,23.40
2018-04-10T16:42:21.427Z,23.30
2018-04-10T16:44:49.054Z,23.20
2018-04-10T16:47:16.652Z,23.20
2018-04-10T16:49:44.217Z,23.10
2018-04-10T16:52:11.838Z,23.00
2018-04-10T16:54:39.403Z,23.00
2018-04-10T16:57:06.984Z,23.00
2018-04-10T16:59:34.582Z,22.80
2018-04-10T17:02:02.939Z,22.70
2018-04-10T17:04:30.519Z,22.70
2018-04-10T17:06:58.887Z,22.60
2018-04-10T17:09:26.565Z,22.60
2018-04-10T17:11:54.994Z,22.50
2018-04-10T17:14:22.598Z,22.50
2018-04-10T17:16:50.972Z,22.40
2018-04-10T17:19:19.401Z,22.30
2018-04-10T17:21:47.096Z,22.30
2018-04-10T17:24:14.674Z,22.30
2018-04-10T17:26:42.260Z,22.20
2018-04-10T17:29:10.650Z,22.10
2018-04-10T17:31:38.265Z,22.10
2018-04-10T17:34:06.717Z,22.00
2018-04-10T17:36:34.373Z,22.00
2018-04-10T17:39:01.991Z,21.90
2018-04-10T17:41:30.347Z,21.90
2018-04-10T17:43:58.031Z,21.90
2018-04-10T17:46:26.388Z,21.80
2018-04-10T17:48:54.018Z,21.80
2018-04-10T17:51:22.303Z,21.70
2018-04-10T17:53:49.874Z,21.70
2018-04-10T17:56:17.497Z,21.60
2018-04-10T17:58:45.076Z,21.50
2018-04-10T18:01:12.651Z,21.40
2018-04-10T18:03:40.350Z,21.30
2018-04-10T18:06:08.025Z,21.30
2018-04-10T18:08:36.379Z,21.20
2018-04-10T18:11:04.030Z,21.10
2018-04-10T18:13:31.611Z,21.10
2018-04-10T18:15:59.992Z,20.90
2018-04-10T18:18:28.395Z,20.70
2018-04-10T18:20:55.962Z,20.70
2018-04-10T18:23:23.565Z,20.70
2018-04-10T18:25:51.289Z,20.50
2018-04-10T18:28:19.757Z,20.40
2018-04-10T18:30:47.429Z,20.40
2018-04-10T18:33:15.357Z,20.30
2018-04-10T18:35:43.047Z,20.20
2018-04-10T18:38:11.394Z,20.10
2018-04-10T18:40:38.986Z,20.10
2018-04-10T18:43:07.343Z,19.90
2018-04-10T18:45:35.628Z,19.90
2018-04-10T18:48:03.993Z,19.80
2018-04-10T18:50:31.585Z,19.70
2018-04-10T18:52:59.176Z,19.70
2018-04-10T18:55:26.789Z,19.60
2018-04-10T18:57:55.791Z,19.50
2018-04-10T19:00:24.162Z,19.40
2018-04-10T19:02:52.505Z,19.40
2018-04-10T19:05:20.095Z,19.30
2018-04-10T19:07:48.437Z,19.30
2018-04-10T19:10:16.047Z,19.20
2018-04-10T19:12:44.687Z,19.20
2018-04-10T19:15:12.331Z,19.10
2018-04-10T19:17:39.916Z,19.20
2018-04-10T19:20:07.515Z,19.20
2018-04-10T19:22:35.931Z,19.10
2018-04-10T19:25:03.519Z,19.10
2018-04-10T19:27:31.104Z,19.10
2018-04-10T19:29:59.466Z,19.00
2018-04-10T19:32:27.118Z,19.00
2018-04-10T19:34:54.715Z,19.00
2018-04-10T19:37:23.147Z,19.00
2018-04-10T19:39:52.061Z,19.00
2018-04-10T19:42:19.687Z,19.00
2018-04-10T19:44:47.293Z,19.00
2018-04-10T19:47:15.337Z,19.00
2018-04-10T19:49:42.938Z,19.00
2018-04-10T19:52:11.289Z,19.00
2018-04-10T19:54:39.140Z,19.00
2018-04-10T19:57:06.826Z,19.10
2018-04-10T19:59:34.508Z,19.00
2018-04-10T20:02:02.122Z,19.10
2018-04-10T20:04:29.740Z,19.00
2018-04-10T20:06:57.543Z,19.10
2018-04-10T20:09:25.202Z,19.00
2018-04-10T20:11:52.801Z,19.00
2018-04-10T20:14:20.411Z,19.00
2018-04-10T20:16:48.005Z,18.90
2018-04-10T20:19:15.666Z,18.90
2018-04-10T20:21:43.247Z,18.90
2018-04-10T20:24:10.984Z,18.90
2018-04-10T20:26:38.555Z,18.90
2018-04-10T20:29:06.142Z,18.90
2018-04-10T20:31:34.498Z,18.80
2018-04-10T20:34:02.109Z,18.80
2018-04-10T20:36:29.687Z,18.80
2018-04-10T20:38:57.267Z,18.80
2018-04-10T20:41:24.866Z,18.80
2018-04-10T20:43:53.243Z,18.80
2018-04-10T20:46:21.619Z,18.80
2018-04-10T20:48:50.026Z,18.80
2018-04-10T20:51:17.593Z,18.70
2018-04-10T20:53:45.189Z,18.70
2018-04-10T20:56:12.764Z,18.70
2018-04-10T20:58:40.351Z,18.70
2018-04-10T21:01:08.141Z,18.60
2018-04-10T21:03:35.727Z,18.60
2018-04-10T21:06:03.307Z,18.60
2018-04-10T21:08:31.021Z,18.50
2018-04-10T21:10:58.608Z,18.50
2018-04-10T21:13:26.207Z,18.50
2018-04-10T21:15:54.541Z,18.30
2018-04-10T21:18:22.131Z,18.30
2018-04-10T21:20:49.843Z,18.30
2018-04-10T21:23:17.553Z,18.20
2018-04-10T21:25:45.183Z,18.20
2018-04-10T21:28:12.770Z,18.10
2018-04-10T21:30:40.387Z,18.10
2018-04-10T21:33:07.953Z,18.10
2018-04-10T21:35:35.657Z,18.10
2018-04-10T21:38:03.247Z,18.10
2018-04-10T21:40:30.965Z,18.10
2018-04-10T21:43:04.257Z,18.00
2018-04-10T21:45:31.939Z,18.00
2018-04-10T21:47:59.569Z,17.90
2018-04-10T21:50:27.136Z,17.90
2018-04-10T21:52:54.736Z,17.90
2018-04-10T21:55:23.016Z,17.90
2018-04-10T21:57:50.601Z,17.90
2018-04-10T22:00:18.250Z,17.90
2018-04-10T22:02:45.805Z,17.80
2018-04-10T22:05:13.385Z,17.80
2018-04-10T22:07:41.720Z,17.80
2018-04-10T22:10:09.408Z,17.70
2018-04-10T22:12:37.001Z,17.70
2018-04-10T22:15:04.622Z,17.70
2018-04-10T22:17:32.960Z,17.60
2018-04-10T22:20:01.499Z,17.60
2018-04-10T22:22:29.834Z,17.60
2018-04-10T22:24:58.747Z,17.50
2018-04-10T22:27:25.812Z,17.50
2018-04-10T22:29:54.185Z,17.50
2018-04-10T22:32:21.841Z,17.40
2018-04-10T22:34:49.387Z,17.50
2018-04-10T22:37:17.762Z,17.40
2018-04-10T22:39:46.118Z,17.30
2018-04-10T22:42:13.707Z,17.30
2018-04-10T22:44:42.063Z,17.30
2018-04-10T22:47:11.179Z,17.20
2018-04-10T22:49:39.539Z,17.20
2018-04-10T22:52:07.116Z,17.20
2018-04-10T22:54:37.382Z,17.10
2018-04-10T22:57:04.969Z,17.10
2018-04-10T22:59:32.667Z,17.10
2018-04-10T23:02:01.041Z,17.00
2018-04-10T23:04:29.394Z,17.00
2018-04-10T23:06:57.006Z,17.00
2018-04-10T23:09:24.708Z,16.90
2018-04-10T23:11:52.311Z,16.90
2018-04-10T23:14:19.903Z,16.90
2018-04-10T23:16:48.246Z,16.90
2018-04-10T23:19:15.879Z,16.90
2018-04-10T23:21:43.493Z,16.90
2018-04-10T23:24:11.830Z,16.90
2018-04-10T23:26:39.426Z,16.80
2018-04-10T23:29:07.012Z,16.80
2018-04-10T23:31:35.354Z,16.80
2018-04-10T23:34:02.930Z,16.70
2018-04-10T23:36:30.510Z,16.80
2018-04-10T23:38:58.870Z,16.80
2018-04-10T23:41:26.450Z,16.70
2018-04-10T23:43:54.801Z,16.80
2018-04-10T23:46:22.379Z,16.70
2018-04-10T23:48:49.967Z,16.70
2018-04-10T23:51:17.544Z,16.80
2018-04-10T23:53:45.161Z,16.70
2018-04-10T23:56:13.417Z,16.70
2018-04-10T23:58:40.922Z,16.70
